createdAt,value
2018-06-30T00:01:24.846Z,21.40
2018-06-30T00:03:54.224Z,21.50
2018-06-30T00:06:24.379Z,21.50
2018-06-30T00:08:53.469Z,21.40
2018-06-30T00:11:22.157Z,21.40
2018-06-30T00:13:50.895Z,21.30
2018-06-30T00:16:20.029Z,21.30
2018-06-30T00:18:48.872Z,21.30
2018-06-30T00:21:17.470Z,21.20
2018-06-30T00:23:46.340Z,21.20
2018-06-30T00:26:15.080Z,21.10
2018-06-30T00:28:44.002Z,21.10
2018-06-30T00:31:13.078Z,21.10
2018-06-30T00:33:41.698Z,21.10
2018-06-30T00:38:39.071Z,21.00
2018-06-30T00:41:07.775Z,21.00
2018-06-30T00:43:36.406Z,21.10
2018-06-30T00:46:05.045Z,21.00
2018-06-30T00:48:33.720Z,21.10
2018-06-30T00:51:02.329Z,21.00
2018-06-30T00:53:31.142Z,20.90
2018-06-30T00:56:00.050Z,20.90
2018-06-30T00:58:28.735Z,20.80
2018-06-30T01:00:59.128Z,20.80
2018-06-30T01:03:29.323Z,20.70
2018-06-30T01:05:58.364Z,20.80
2018-06-30T01:08:26.966Z,20.90
2018-06-30T01:10:55.597Z,20.90
2018-06-30T01:13:24.200Z,20.90
2018-06-30T01:15:52.803Z,20.80
2018-06-30T01:18:21.349Z,20.70
2018-06-30T01:20:50.051Z,20.80
2018-06-30T01:23:18.619Z,20.80
2018-06-30T01:25:47.230Z,20.70
2018-06-30T01:28:15.781Z,20.70
2018-06-30T01:30:44.410Z,20.70
2018-06-30T01:33:12.948Z,20.60
2018-06-30T01:38:10.823Z,20.40
2018-06-30T01:40:39.743Z,20.40
2018-06-30T01:43:08.396Z,20.40
2018-06-30T01:45:37.404Z,20.40
2018-06-30T01:48:06.359Z,20.40
2018-06-30T01:50:34.978Z,20.40
2018-06-30T01:55:31.986Z,20.40
2018-06-30T01:58:00.722Z,20.40
2018-06-30T02:02:57.499Z,20.40
2018-06-30T02:07:54.370Z,20.30
2018-06-30T02:10:23.222Z,20.20
2018-06-30T02:12:51.770Z,20.20
2018-06-30T02:15:20.397Z,20.20
2018-06-30T02:17:49.340Z,20.20
2018-06-30T02:20:17.859Z,20.20
2018-06-30T02:22:46.392Z,20.20
2018-06-30T02:25:14.972Z,20.20
2018-06-30T02:27:43.621Z,20.20
2018-06-30T02:30:12.172Z,20.10
2018-06-30T02:32:40.999Z,20.00
2018-06-30T02:35:09.596Z,20.10
2018-06-30T02:37:38.184Z,20.10
2018-06-30T02:40:07.302Z,20.00
2018-06-30T02:42:35.859Z,20.00
2018-06-30T02:47:33.551Z,20.10
2018-06-30T02:50:02.130Z,20.00
2018-06-30T02:52:30.662Z,20.00
2018-06-30T02:54:59.408Z,20.00
2018-06-30T02:57:27.926Z,19.90
2018-06-30T02:59:56.467Z,19.80
2018-06-30T03:02:25.055Z,19.80
2018-06-30T03:04:53.617Z,19.80
2018-06-30T03:07:22.776Z,19.70
2018-06-30T03:09:51.678Z,19.70
2018-06-30T03:12:20.192Z,19.60
2018-06-30T03:14:48.827Z,19.60
2018-06-30T03:17:17.382Z,19.70
2018-06-30T03:19:46.003Z,19.60
2018-06-30T03:22:14.583Z,19.60
2018-06-30T03:24:43.571Z,19.60
2018-06-30T03:27:12.616Z,19.70
2018-06-30T03:29:41.202Z,19.70
2018-06-30T03:34:38.250Z,19.60
2018-06-30T03:37:06.963Z,19.60
2018-06-30T03:39:35.792Z,19.70
2018-06-30T03:42:04.340Z,19.70
2018-06-30T03:44:32.914Z,19.60
2018-06-30T03:47:01.694Z,19.60
2018-06-30T03:49:30.243Z,19.60
2018-06-30T03:51:58.801Z,19.50
2018-06-30T03:54:27.352Z,19.60
2018-06-30T03:56:56.033Z,19.60
2018-06-30T03:59:24.747Z,19.50
2018-06-30T04:01:53.763Z,19.40
2018-06-30T04:04:22.676Z,19.50
2018-06-30T04:06:51.177Z,19.50
2018-06-30T04:11:47.884Z,19.50
2018-06-30T04:14:16.452Z,19.50
2018-06-30T04:16:45.105Z,19.50
2018-06-30T04:19:15.711Z,19.60
2018-06-30T04:21:45.438Z,19.60
2018-06-30T04:24:14.456Z,19.60
2018-06-30T04:31:40.991Z,19.60
2018-06-30T04:34:09.919Z,19.50
2018-06-30T04:36:38.827Z,19.60
2018-06-30T04:39:09.061Z,19.60
2018-06-30T04:41:38.131Z,19.60
2018-06-30T04:44:06.931Z,19.70
2018-06-30T04:46:36.041Z,19.60
2018-06-30T04:49:04.945Z,19.60
2018-06-30T04:51:33.546Z,19.50
2018-06-30T04:54:02.143Z,19.50
2018-06-30T04:56:30.733Z,19.50
2018-06-30T04:58:59.422Z,19.60
2018-06-30T05:01:27.992Z,19.70
2018-06-30T05:03:56.587Z,19.80
2018-06-30T05:06:25.144Z,19.80
2018-06-30T05:08:54.138Z,19.80
2018-06-30T05:11:22.698Z,19.70
2018-06-30T05:13:52.135Z,19.70
2018-06-30T05:16:20.725Z,19.80
2018-06-30T05:18:49.658Z,19.80
2018-06-30T05:21:18.279Z,19.80
2018-06-30T05:23:46.903Z,19.90
2018-06-30T05:26:15.635Z,20.00
2018-06-30T05:28:44.339Z,20.20
2018-06-30T05:31:13.419Z,20.40
2018-06-30T05:33:42.467Z,20.50
2018-06-30T05:36:11.197Z,20.60
2018-06-30T05:38:39.767Z,20.60
2018-06-30T05:41:08.380Z,20.60
2018-06-30T05:46:05.738Z,20.60
2018-06-30T05:48:34.427Z,20.70
2018-06-30T05:51:03.011Z,20.80
2018-06-30T05:53:32.480Z,20.80
2018-06-30T05:56:01.443Z,21.00
2018-06-30T05:58:30.569Z,21.10
2018-06-30T06:00:59.531Z,21.20
2018-06-30T06:03:28.423Z,21.20
2018-06-30T06:05:57.571Z,21.20
2018-06-30T06:08:26.397Z,21.30
2018-06-30T06:10:55.193Z,21.40
2018-06-30T06:13:24.222Z,21.50
2018-06-30T06:15:53.490Z,21.50
2018-06-30T06:18:22.520Z,21.60
2018-06-30T06:20:51.406Z,21.60
2018-06-30T06:23:20.905Z,21.60
2018-06-30T06:28:18.290Z,21.80
2018-06-30T06:33:15.577Z,21.90
2018-06-30T06:35:44.513Z,22.00
2018-06-30T06:38:13.484Z,22.10
2018-06-30T06:40:42.594Z,22.20
2018-06-30T06:43:11.425Z,22.30
2018-06-30T06:45:40.295Z,22.40
2018-06-30T06:48:09.003Z,22.50
2018-06-30T06:50:38.052Z,22.70
2018-06-30T06:53:07.210Z,23.00
2018-06-30T06:55:35.821Z,23.20
2018-06-30T06:58:04.726Z,23.40
2018-06-30T07:00:33.454Z,23.60
2018-06-30T07:03:02.472Z,23.90
2018-06-30T07:05:31.038Z,24.10
2018-06-30T07:10:28.103Z,24.50
2018-06-30T07:12:56.739Z,24.60
2018-06-30T07:15:26.292Z,24.80
2018-06-30T07:17:54.964Z,24.90
2018-06-30T07:20:23.567Z,25.00
2018-06-30T07:22:52.304Z,25.10
2018-06-30T07:25:21.488Z,25.20
2018-06-30T07:27:50.219Z,25.30
2018-06-30T07:30:18.891Z,25.40
2018-06-30T07:32:47.675Z,25.60
2018-06-30T07:35:16.537Z,25.70
2018-06-30T07:37:45.462Z,25.70
2018-06-30T07:40:14.380Z,25.80
2018-06-30T07:42:43.107Z,25.90
2018-06-30T07:45:12.289Z,26.00
2018-06-30T07:47:40.951Z,26.00
2018-06-30T07:50:09.955Z,26.00
2018-06-30T07:52:38.597Z,26.10
2018-06-30T07:55:07.220Z,26.20
2018-06-30T07:57:36.095Z,26.30
2018-06-30T08:00:04.930Z,26.30
2018-06-30T08:02:33.444Z,26.40
2018-06-30T08:05:02.077Z,26.40
2018-06-30T08:07:30.759Z,26.50
2018-06-30T08:09:59.455Z,26.50
2018-06-30T08:12:28.235Z,26.60
2018-06-30T08:14:56.830Z,26.50
2018-06-30T08:17:25.692Z,26.60
2018-06-30T08:19:54.345Z,26.60
2018-06-30T08:22:23.318Z,26.60
2018-06-30T08:24:51.957Z,26.60
2018-06-30T08:27:20.843Z,26.60
2018-06-30T08:29:50.249Z,26.50
2018-06-30T08:32:18.951Z,26.60
2018-06-30T08:34:47.691Z,26.70
2018-06-30T08:37:16.467Z,26.70
2018-06-30T08:39:45.212Z,26.70
2018-06-30T08:42:13.864Z,26.70
2018-06-30T08:44:42.991Z,26.70
2018-06-30T08:47:11.677Z,26.70
2018-06-30T08:49:40.470Z,26.60
2018-06-30T08:54:37.538Z,26.60
2018-06-30T08:57:06.692Z,26.70
2018-06-30T08:59:35.593Z,26.70
2018-06-30T09:02:04.335Z,26.60
2018-06-30T09:04:32.954Z,26.60
2018-06-30T09:07:01.780Z,26.70
2018-06-30T09:09:30.630Z,26.70
2018-06-30T09:11:59.396Z,26.70
2018-06-30T09:14:29.487Z,26.70
2018-06-30T09:19:26.649Z,26.60
2018-06-30T09:21:56.953Z,26.60
2018-06-30T09:24:25.617Z,26.50
2018-06-30T09:26:54.391Z,26.50
2018-06-30T09:29:23.126Z,26.50
2018-06-30T09:31:51.901Z,26.60
2018-06-30T09:34:21.004Z,26.60
2018-06-30T09:36:49.772Z,26.50
2018-06-30T09:39:18.410Z,26.50
2018-06-30T09:41:47.074Z,26.60
2018-06-30T09:44:15.758Z,26.50
2018-06-30T09:46:44.343Z,26.50
2018-06-30T09:49:13.083Z,26.40
2018-06-30T09:51:42.139Z,26.50
2018-06-30T09:54:11.086Z,26.40
2018-06-30T09:56:39.909Z,26.50
2018-06-30T09:59:08.746Z,26.50
2018-06-30T10:01:37.721Z,26.40
2018-06-30T10:04:06.392Z,26.40
2018-06-30T10:06:35.171Z,26.40
2018-06-30T10:09:06.702Z,26.30
2018-06-30T10:14:03.958Z,26.30
2018-06-30T10:16:32.632Z,26.30
2018-06-30T10:19:01.467Z,26.20
2018-06-30T10:23:58.539Z,26.20
2018-06-30T10:26:27.246Z,26.20
2018-06-30T10:28:56.167Z,26.20
2018-06-30T10:31:24.852Z,26.20
2018-06-30T10:33:53.562Z,26.20
2018-06-30T10:36:23.798Z,26.20
2018-06-30T10:38:52.773Z,26.10
2018-06-30T10:41:21.409Z,26.10
2018-06-30T10:43:50.009Z,26.10
2018-06-30T10:46:18.735Z,26.20
2018-06-30T10:48:47.359Z,26.20
2018-06-30T10:51:16.019Z,26.10
2018-06-30T10:53:44.774Z,26.10
2018-06-30T10:56:13.436Z,26.10
2018-06-30T10:58:42.064Z,26.10
2018-06-30T11:01:10.688Z,26.10
2018-06-30T11:03:39.286Z,26.10
2018-06-30T11:06:07.977Z,26.20
2018-06-30T11:08:36.606Z,26.20
2018-06-30T11:11:05.418Z,26.20
2018-06-30T11:13:34.426Z,26.10
2018-06-30T11:16:03.176Z,26.20
2018-06-30T11:18:31.928Z,26.10
2018-06-30T11:21:01.110Z,26.20
2018-06-30T11:23:29.784Z,26.20
2018-06-30T11:25:58.679Z,26.20
2018-06-30T11:28:27.701Z,26.20
2018-06-30T11:30:56.331Z,26.20
2018-06-30T11:33:25.020Z,26.20
2018-06-30T11:35:54.604Z,26.20
2018-06-30T11:38:23.235Z,26.20
2018-06-30T11:40:52.404Z,26.20
2018-06-30T11:43:21.400Z,26.20
2018-06-30T11:50:47.604Z,26.10
2018-06-30T11:53:16.545Z,26.20
2018-06-30T11:55:45.604Z,26.20
2018-06-30T11:58:14.296Z,26.30
2018-06-30T12:00:43.351Z,26.30
2018-06-30T12:05:40.643Z,26.30
2018-06-30T12:08:09.272Z,26.40
2018-06-30T12:10:38.575Z,26.30
2018-06-30T12:13:07.221Z,26.30
2018-06-30T12:15:36.129Z,26.30
2018-06-30T12:18:05.652Z,26.30
2018-06-30T12:20:34.640Z,26.40
2018-06-30T12:23:03.307Z,26.40
2018-06-30T12:25:31.890Z,26.40
2018-06-30T12:28:01.042Z,26.40
2018-06-30T12:30:29.659Z,26.30
2018-06-30T12:32:58.252Z,26.30
2018-06-30T12:35:26.785Z,26.40
2018-06-30T12:37:55.554Z,26.40
2018-06-30T12:40:24.215Z,26.40
2018-06-30T12:42:52.996Z,26.50
2018-06-30T12:45:21.665Z,26.50
2018-06-30T12:47:50.351Z,26.50
2018-06-30T12:50:19.293Z,26.60
2018-06-30T12:52:48.106Z,26.60
2018-06-30T12:55:16.868Z,26.50
2018-06-30T12:57:45.744Z,26.50
2018-06-30T13:00:14.578Z,26.40
2018-06-30T13:02:43.736Z,26.50
2018-06-30T13:05:12.371Z,26.60
2018-06-30T13:07:41.075Z,26.60
2018-06-30T13:10:10.175Z,26.70
2018-06-30T13:12:38.907Z,26.70
2018-06-30T13:15:07.544Z,26.70
2018-06-30T13:17:36.396Z,26.70
2018-06-30T13:20:05.751Z,26.70
2018-06-30T13:22:34.295Z,26.70
2018-06-30T13:25:02.975Z,26.70
2018-06-30T13:27:31.791Z,26.80
2018-06-30T13:30:00.600Z,26.90
2018-06-30T13:32:29.237Z,27.00
2018-06-30T13:34:58.306Z,27.20
2018-06-30T13:37:27.014Z,27.30
2018-06-30T13:39:56.005Z,27.30
2018-06-30T13:42:25.135Z,27.30
2018-06-30T13:44:54.208Z,27.30
2018-06-30T13:47:23.208Z,27.30
2018-06-30T13:49:51.793Z,27.30
2018-06-30T13:52:20.676Z,27.30
2018-06-30T13:54:49.343Z,27.30
2018-06-30T13:57:19.407Z,27.30
2018-06-30T13:59:48.931Z,27.30
2018-06-30T14:02:17.596Z,27.30
2018-06-30T14:04:46.138Z,27.30
2018-06-30T14:07:14.804Z,27.30
2018-06-30T14:09:43.404Z,27.40
2018-06-30T14:12:12.215Z,27.30
2018-06-30T14:14:40.882Z,27.30
2018-06-30T14:17:09.460Z,27.30
2018-06-30T14:19:38.048Z,27.30
2018-06-30T14:22:07.108Z,27.30
2018-06-30T14:24:36.049Z,27.30
2018-06-30T14:27:04.821Z,27.30
2018-06-30T14:32:01.752Z,27.30
2018-06-30T14:34:30.400Z,27.40
2018-06-30T14:36:59.064Z,27.40
2018-06-30T14:39:27.665Z,27.40
2018-06-30T14:41:56.641Z,27.40
2018-06-30T14:44:28.392Z,27.40
2018-06-30T14:46:57.112Z,27.40
2018-06-30T14:49:25.680Z,27.40
2018-06-30T14:51:54.351Z,27.40
2018-06-30T14:54:22.939Z,27.30
2018-06-30T14:56:51.621Z,27.30
2018-06-30T14:59:20.718Z,27.40
2018-06-30T15:01:49.872Z,27.40
2018-06-30T15:04:18.524Z,27.50
2018-06-30T15:06:47.143Z,27.40
2018-06-30T15:09:16.423Z,27.50
2018-06-30T15:11:45.875Z,27.60
2018-06-30T15:14:16.015Z,27.50
2018-06-30T15:16:44.558Z,27.50
2018-06-30T15:19:13.504Z,27.40
2018-06-30T15:21:42.256Z,27.40
2018-06-30T15:24:10.780Z,27.40
2018-06-30T15:26:39.407Z,27.40
2018-06-30T15:29:07.981Z,27.40
2018-06-30T15:31:36.633Z,27.30
2018-06-30T15:34:05.406Z,27.40
2018-06-30T15:36:34.382Z,27.40
2018-06-30T15:39:03.051Z,27.40
2018-06-30T15:41:32.060Z,27.50
2018-06-30T15:44:00.640Z,27.40
2018-06-30T15:46:29.226Z,27.40
2018-06-30T15:48:57.757Z,27.40
2018-06-30T15:51:26.344Z,27.40
2018-06-30T15:53:55.075Z,27.30
2018-06-30T15:56:23.585Z,27.30
2018-06-30T15:58:52.211Z,27.30
2018-06-30T16:01:21.459Z,27.20
2018-06-30T16:03:50.050Z,27.20
2018-06-30T16:08:47.172Z,27.30
2018-06-30T16:11:15.783Z,27.10
2018-06-30T16:13:44.851Z,27.10
2018-06-30T16:16:13.809Z,27.20
2018-06-30T16:18:42.363Z,27.30
2018-06-30T16:21:12.419Z,27.30
2018-06-30T16:23:41.111Z,27.30
2018-06-30T16:26:10.026Z,27.30
2018-06-30T16:28:38.738Z,27.30
2018-06-30T16:31:08.095Z,27.20
2018-06-30T16:33:37.050Z,27.20
2018-06-30T16:36:05.732Z,27.30
2018-06-30T16:41:02.656Z,27.20
2018-06-30T16:43:31.336Z,27.10
2018-06-30T16:45:59.895Z,27.10
2018-06-30T16:48:29.363Z,27.00
2018-06-30T16:50:58.255Z,27.00
2018-06-30T16:53:26.819Z,27.00
2018-06-30T16:55:55.476Z,26.90
2018-06-30T16:58:24.048Z,26.90
2018-06-30T17:00:52.627Z,26.90
2018-06-30T17:03:21.235Z,27.00
2018-06-30T17:05:50.068Z,27.00
2018-06-30T17:08:19.178Z,26.90
2018-06-30T17:10:47.768Z,26.90
2018-06-30T17:13:16.300Z,26.90
2018-06-30T17:15:45.013Z,26.80
2018-06-30T17:20:42.098Z,26.90
2018-06-30T17:23:10.719Z,26.80
2018-06-30T17:25:39.280Z,26.80
2018-06-30T17:28:07.935Z,26.80
2018-06-30T17:30:36.714Z,26.80
2018-06-30T17:33:05.754Z,26.70
2018-06-30T17:35:34.990Z,26.70
2018-06-30T17:38:03.883Z,26.70
2018-06-30T17:40:32.479Z,26.70
2018-06-30T17:45:29.283Z,26.70
2018-06-30T17:47:58.528Z,26.70
2018-06-30T17:50:27.552Z,26.60
2018-06-30T17:52:56.124Z,26.60
2018-06-30T17:55:24.859Z,26.60
2018-06-30T17:57:53.763Z,26.50
2018-06-30T18:00:22.843Z,26.50
2018-06-30T18:02:51.594Z,26.50
2018-06-30T18:05:20.388Z,26.40
2018-06-30T18:10:18.122Z,26.40
2018-06-30T18:12:47.004Z,26.40
2018-06-30T18:15:16.086Z,26.30
2018-06-30T18:17:45.462Z,26.30
2018-06-30T18:20:14.291Z,26.30
2018-06-30T18:22:43.032Z,26.20
2018-06-30T18:25:11.658Z,26.20
2018-06-30T18:27:40.346Z,26.20
2018-06-30T18:30:09.440Z,26.20
2018-06-30T18:32:38.126Z,26.20
2018-06-30T18:35:07.387Z,26.20
2018-06-30T18:37:36.084Z,26.20
2018-06-30T18:40:05.377Z,26.20
2018-06-30T18:42:34.468Z,26.10
2018-06-30T18:45:03.272Z,26.00
2018-06-30T18:47:32.002Z,26.00
2018-06-30T18:50:00.773Z,26.10
2018-06-30T18:52:29.509Z,26.00
2018-06-30T18:54:58.553Z,25.90
2018-06-30T18:57:27.253Z,25.90
2018-06-30T18:59:55.953Z,25.80
2018-06-30T19:02:24.679Z,25.80
2018-06-30T19:04:53.316Z,25.70
2018-06-30T19:07:22.415Z,25.70
2018-06-30T19:09:50.967Z,25.60
2018-06-30T19:12:20.352Z,25.60
2018-06-30T19:14:49.437Z,25.50
2018-06-30T19:17:18.054Z,25.50
2018-06-30T19:19:46.861Z,25.50
2018-06-30T19:22:15.445Z,25.40
2018-06-30T19:24:44.179Z,25.40
2018-06-30T19:27:12.822Z,25.30
2018-06-30T19:29:41.885Z,25.30
2018-06-30T19:32:10.521Z,25.30
2018-06-30T19:34:39.088Z,25.20
2018-06-30T19:37:07.859Z,25.20
2018-06-30T19:39:36.766Z,25.20
2018-06-30T19:42:05.659Z,25.10
2018-06-30T19:44:34.446Z,25.10
2018-06-30T19:47:03.083Z,25.00
2018-06-30T19:49:31.682Z,25.00
2018-06-30T19:52:00.695Z,25.00
2018-06-30T19:54:29.604Z,24.90
2018-06-30T19:56:58.308Z,24.90
2018-06-30T19:59:27.566Z,24.90
2018-06-30T20:01:56.115Z,24.80
2018-06-30T20:04:24.982Z,24.80
2018-06-30T20:06:53.815Z,24.70
2018-06-30T20:09:22.826Z,24.60
2018-06-30T20:11:51.535Z,24.60
2018-06-30T20:14:20.324Z,24.60
2018-06-30T20:16:48.927Z,24.50
2018-06-30T20:19:17.436Z,24.50
2018-06-30T20:21:46.162Z,24.50
2018-06-30T20:24:15.106Z,24.40
2018-06-30T20:26:43.648Z,24.40
2018-06-30T20:29:12.272Z,24.40
2018-06-30T20:31:40.819Z,24.30
2018-06-30T20:34:09.574Z,24.30
2018-06-30T20:36:38.189Z,24.30
2018-06-30T20:39:08.523Z,24.30
2018-06-30T20:41:38.006Z,24.20
2018-06-30T20:44:06.682Z,24.20
2018-06-30T20:46:49.820Z,24.20
2018-06-30T20:49:18.535Z,24.10
2018-06-30T20:51:47.149Z,24.00
2018-06-30T20:54:15.847Z,24.00
2018-06-30T20:56:44.427Z,24.00
2018-06-30T20:59:13.013Z,23.90
2018-06-30T21:01:41.696Z,23.80
2018-06-30T21:04:10.503Z,23.70
2018-06-30T21:06:39.663Z,23.70
2018-06-30T21:09:09.715Z,23.70
2018-06-30T21:11:38.779Z,23.70
2018-06-30T21:14:07.489Z,23.70
2018-06-30T21:16:36.071Z,23.70
2018-06-30T21:19:04.829Z,23.60
2018-06-30T21:21:34.122Z,23.60
2018-06-30T21:24:02.811Z,23.60
2018-06-30T21:26:31.442Z,24.30
2018-06-30T21:28:59.977Z,23.60
2018-06-30T21:31:28.777Z,23.60
2018-06-30T21:33:57.459Z,23.40
2018-06-30T21:36:26.659Z,23.40
2018-06-30T21:38:55.521Z,23.40
2018-06-30T21:41:24.510Z,23.30
2018-06-30T21:43:53.886Z,23.20
2018-06-30T21:46:22.722Z,23.10
2018-06-30T21:48:51.623Z,23.10
2018-06-30T21:51:20.261Z,23.10
2018-06-30T21:53:49.324Z,23.00
2018-06-30T21:56:17.962Z,22.90
2018-06-30T21:58:46.599Z,22.90
2018-06-30T22:01:20.333Z,22.80
2018-06-30T22:03:49.087Z,22.70
2018-06-30T22:06:17.961Z,22.60
2018-06-30T22:08:46.479Z,22.60
2018-06-30T22:11:15.271Z,22.70
2018-06-30T22:13:44.072Z,22.70
2018-06-30T22:16:12.628Z,22.70
2018-06-30T22:18:41.961Z,22.60
2018-06-30T22:21:10.955Z,22.50
2018-06-30T22:23:40.133Z,22.50
2018-06-30T22:26:08.713Z,22.50
2018-06-30T22:28:37.248Z,22.50
2018-06-30T22:31:05.840Z,22.50
2018-06-30T22:33:34.385Z,22.50
2018-06-30T22:36:02.989Z,22.50
2018-06-30T22:38:31.520Z,22.50
2018-06-30T22:41:00.034Z,22.40
2018-06-30T22:43:29.011Z,22.30
2018-06-30T22:45:57.555Z,22.30
2018-06-30T22:48:26.845Z,22.30
2018-06-30T22:50:55.428Z,22.20
2018-06-30T22:58:20.679Z,22.10
2018-06-30T23:00:49.242Z,22.00
2018-06-30T23:03:18.313Z,22.10
2018-06-30T23:05:47.409Z,22.10
2018-06-30T23:08:15.999Z,22.10
2018-06-30T23:10:45.074Z,22.00
2018-06-30T23:13:13.597Z,21.90
2018-06-30T23:15:42.134Z,21.80
2018-06-30T23:18:10.898Z,21.80
2018-06-30T23:20:39.429Z,21.80
2018-06-30T23:23:09.182Z,21.80
2018-06-30T23:25:38.331Z,21.70
2018-06-30T23:28:07.236Z,21.70
2018-06-30T23:30:36.363Z,21.70
2018-06-30T23:33:05.006Z,21.60
2018-06-30T23:35:34.262Z,21.70
2018-06-30T23:38:03.576Z,21.60
2018-06-30T23:40:32.218Z,21.60
2018-06-30T23:43:00.751Z,21.60
2018-06-30T23:45:29.711Z,21.60
2018-06-30T23:47:58.293Z,21.60
2018-06-30T23:52:55.256Z,21.60
2018-06-30T23:55:23.880Z,21.60
2018-06-30T23:57:52.515Z,21.50
